createdAt,value
2024-05-09T00:00:40.271Z,25.10
2024-05-09T00:03:10.035Z,25.10
2024-05-09T00:05:38.657Z,25.10
2024-05-09T00:08:06.182Z,25.10
2024-05-09T00:10:37.137Z,25.10
2024-05-09T00:13:06.525Z,25.10
2024-05-09T00:15:34.325Z,25.10
2024-05-09T00:18:02.078Z,25.10
2024-05-09T00:20:37.346Z,25.10
2024-05-09T00:23:07.990Z,25.10
2024-05-09T00:25:35.684Z,25.10
2024-05-09T00:28:03.012Z,25.10
2024-05-09T00:30:34.608Z,25.10
2024-05-09T00:33:04.924Z,25.10
2024-05-09T00:35:33.060Z,25.10
2024-05-09T00:38:00.324Z,25.10
2024-05-09T00:40:37.666Z,25.10
2024-05-09T00:43:07.563Z,25.10
2024-05-09T00:45:35.149Z,25.10
2024-05-09T00:48:03.186Z,25.10
2024-05-09T00:50:36.118Z,25.10
2024-05-09T00:53:06.168Z,25.10
2024-05-09T00:55:34.078Z,25.10
2024-05-09T00:58:01.494Z,25.00
2024-05-09T01:00:35.953Z,25.10
2024-05-09T01:03:06.985Z,25.10
2024-05-09T01:05:35.079Z,25.10
2024-05-09T01:08:03.117Z,25.10
2024-05-09T01:10:34.580Z,25.10
2024-05-09T01:13:06.829Z,25.10
2024-05-09T01:15:34.618Z,25.10
2024-05-09T01:18:04.330Z,25.10
2024-05-09T01:20:40.021Z,25.10
2024-05-09T01:23:10.545Z,25.10
2024-05-09T01:25:37.962Z,25.10
2024-05-09T01:28:05.211Z,25.10
2024-05-09T01:30:35.517Z,25.10
2024-05-09T01:33:06.774Z,25.10
2024-05-09T01:35:35.576Z,25.10
2024-05-09T01:38:02.874Z,25.00
2024-05-09T01:40:37.218Z,25.00
2024-05-09T01:43:07.350Z,25.00
2024-05-09T01:45:34.475Z,25.00
2024-05-09T01:48:02.267Z,25.00
2024-05-09T01:50:37.949Z,25.00
2024-05-09T01:53:12.393Z,25.00
2024-05-09T01:55:39.768Z,25.00
2024-05-09T01:58:07.492Z,25.00
2024-05-09T02:00:39.818Z,25.00
2024-05-09T02:03:15.953Z,25.00
2024-05-09T02:05:45.556Z,25.00
2024-05-09T02:08:15.134Z,25.00
2024-05-09T02:10:43.264Z,25.00
2024-05-09T02:13:10.552Z,25.00
2024-05-09T02:15:37.547Z,25.10
2024-05-09T02:18:04.881Z,25.10
2024-05-09T02:20:36.246Z,25.10
2024-05-09T02:23:05.308Z,25.10
2024-05-09T02:25:32.777Z,25.10
2024-05-09T02:28:00.000Z,25.10
2024-05-09T02:30:37.701Z,25.00
2024-05-09T02:33:08.715Z,25.10
2024-05-09T02:35:36.617Z,25.00
2024-05-09T02:38:03.822Z,25.00
2024-05-09T02:40:36.793Z,25.00
2024-05-09T02:43:06.635Z,25.00
2024-05-09T02:45:34.002Z,25.00
2024-05-09T02:48:01.856Z,25.00
2024-05-09T02:50:36.642Z,25.00
2024-05-09T02:53:07.170Z,25.00
2024-05-09T02:55:34.379Z,25.00
2024-05-09T02:58:01.403Z,24.90
2024-05-09T03:00:36.833Z,24.90
2024-05-09T03:03:12.802Z,24.90
2024-05-09T03:05:42.182Z,25.00
2024-05-09T03:08:09.659Z,24.90
2024-05-09T03:10:38.657Z,24.90
2024-05-09T03:13:12.654Z,24.90
2024-05-09T03:15:40.872Z,24.90
2024-05-09T03:18:09.547Z,25.00
2024-05-09T03:20:37.321Z,25.00
2024-05-09T03:23:05.614Z,25.00
2024-05-09T03:25:33.165Z,25.10
2024-05-09T03:28:00.187Z,25.10
2024-05-09T03:30:38.893Z,25.10
2024-05-09T03:33:15.539Z,25.00
2024-05-09T03:35:46.504Z,25.00
2024-05-09T03:38:13.754Z,25.00
2024-05-09T03:40:45.134Z,25.00
2024-05-09T03:43:12.810Z,25.00
2024-05-09T03:45:39.900Z,25.00
2024-05-09T03:48:07.258Z,25.00
2024-05-09T03:50:36.179Z,24.90
2024-05-09T03:53:04.371Z,24.90
2024-05-09T03:55:31.553Z,24.90
2024-05-09T03:58:01.422Z,24.90
2024-05-09T04:00:35.710Z,25.00
2024-05-09T04:03:08.566Z,24.90
2024-05-09T04:05:40.027Z,24.90
2024-05-09T04:08:07.792Z,25.00
2024-05-09T04:10:35.520Z,24.90
2024-05-09T04:13:03.694Z,24.90
2024-05-09T04:15:31.248Z,25.00
2024-05-09T04:17:58.591Z,25.00
2024-05-09T04:20:35.986Z,25.00
2024-05-09T04:23:07.717Z,25.00
2024-05-09T04:25:35.417Z,25.00
2024-05-09T04:28:02.422Z,25.10
2024-05-09T04:30:37.153Z,25.10
2024-05-09T04:33:09.153Z,25.10
2024-05-09T04:35:38.578Z,25.10
2024-05-09T04:38:06.152Z,25.10
2024-05-09T04:40:36.175Z,25.10
2024-05-09T04:43:13.687Z,25.10
2024-05-09T04:45:40.920Z,25.10
2024-05-09T04:48:08.319Z,25.10
2024-05-09T04:50:38.430Z,25.20
2024-05-09T04:53:09.410Z,25.20
2024-05-09T04:55:37.808Z,25.20
2024-05-09T04:58:05.848Z,25.20
2024-05-09T05:00:37.185Z,25.20
2024-05-09T05:03:07.553Z,25.20
2024-05-09T05:05:38.025Z,25.30
2024-05-09T05:08:05.567Z,25.30
2024-05-09T05:10:36.274Z,25.30
2024-05-09T05:13:18.375Z,25.30
2024-05-09T05:15:46.458Z,25.40
2024-05-09T05:18:14.984Z,25.40
2024-05-09T05:20:42.569Z,25.40
2024-05-09T05:23:14.047Z,25.40
2024-05-09T05:25:41.696Z,25.40
2024-05-09T05:28:08.934Z,25.40
2024-05-09T05:30:37.655Z,25.40
2024-05-09T05:33:05.447Z,25.40
2024-05-09T05:35:33.000Z,25.40
2024-05-09T05:38:00.271Z,25.20
2024-05-09T05:40:33.467Z,25.10
2024-05-09T05:43:04.646Z,24.90
2024-05-09T05:45:31.712Z,24.90
2024-05-09T05:48:00.450Z,24.80
2024-05-09T05:50:35.262Z,24.70
2024-05-09T05:53:08.950Z,24.60
2024-05-09T05:55:37.164Z,24.60
2024-05-09T05:58:04.226Z,24.50
2024-05-09T06:00:38.259Z,24.60
2024-05-09T06:03:08.013Z,24.50
2024-05-09T06:05:36.209Z,24.30
2024-05-09T06:08:03.334Z,24.20
2024-05-09T06:10:37.701Z,24.20
2024-05-09T06:13:07.522Z,24.20
2024-05-09T06:15:34.603Z,24.10
2024-05-09T06:18:02.191Z,24.00
2024-05-09T06:20:35.384Z,23.90
2024-05-09T06:23:06.766Z,23.80
2024-05-09T06:25:34.591Z,23.70
2024-05-09T06:28:01.711Z,23.60
2024-05-09T06:30:37.234Z,23.60
2024-05-09T06:33:11.035Z,23.50
2024-05-09T06:35:40.410Z,23.40
2024-05-09T06:38:11.464Z,23.40
2024-05-09T06:40:41.345Z,23.30
2024-05-09T06:43:13.550Z,23.20
2024-05-09T06:45:41.091Z,23.10
2024-05-09T06:48:11.711Z,23.10
2024-05-09T06:50:40.157Z,23.00
2024-05-09T06:53:08.157Z,23.00
2024-05-09T06:55:36.390Z,23.00
2024-05-09T06:58:05.859Z,23.00
2024-05-09T07:00:38.901Z,22.90
2024-05-09T07:03:11.407Z,23.00
2024-05-09T07:05:39.765Z,23.00
2024-05-09T07:08:07.308Z,23.10
2024-05-09T07:10:36.244Z,23.10
2024-05-09T07:13:14.052Z,23.10
2024-05-09T07:15:45.110Z,23.10
2024-05-09T07:18:17.212Z,23.10
2024-05-09T07:20:53.392Z,23.10
2024-05-09T07:23:20.814Z,23.10
2024-05-09T07:25:49.397Z,23.10
2024-05-09T07:28:17.739Z,23.00
2024-05-09T07:30:45.338Z,23.10
2024-05-09T07:33:20.058Z,23.20
2024-05-09T07:35:48.697Z,23.40
2024-05-09T07:38:15.922Z,23.60
2024-05-09T07:40:43.363Z,23.90
2024-05-09T07:43:14.931Z,24.00
2024-05-09T07:45:50.721Z,24.30
2024-05-09T07:52:37.891Z,24.60
2024-05-09T07:53:47.462Z,24.80
2024-05-09T07:56:19.156Z,24.90
2024-05-09T07:58:49.917Z,25.10
2024-05-09T08:01:17.127Z,25.20
2024-05-09T08:03:45.448Z,25.30
2024-05-09T08:06:12.581Z,25.40
2024-05-09T08:08:40.310Z,25.50
2024-05-09T08:11:07.623Z,25.60
2024-05-09T08:13:34.651Z,25.70
2024-05-09T08:16:01.847Z,25.80
2024-05-09T08:18:29.204Z,25.80
2024-05-09T08:20:56.565Z,25.90
2024-05-09T08:23:24.691Z,26.00
2024-05-09T08:25:53.141Z,26.10
2024-05-09T08:28:20.668Z,26.10
2024-05-09T08:30:48.044Z,26.20
2024-05-09T08:33:15.536Z,26.30
2024-05-09T08:35:42.725Z,26.30
2024-05-09T08:38:10.301Z,26.40
2024-05-09T08:40:38.373Z,26.50
2024-05-09T08:43:08.246Z,26.50
2024-05-09T08:45:36.290Z,26.60
2024-05-09T08:48:07.248Z,26.60
2024-05-09T08:50:38.644Z,26.70
2024-05-09T08:53:07.467Z,26.80
2024-05-09T08:55:35.860Z,26.80
2024-05-09T08:58:05.589Z,26.90
2024-05-09T09:00:37.023Z,27.00
2024-05-09T09:03:06.968Z,27.00
2024-05-09T09:05:35.511Z,27.00
2024-05-09T09:08:07.025Z,27.10
2024-05-09T09:10:34.212Z,27.10
2024-05-09T09:13:05.358Z,27.20
2024-05-09T09:15:33.422Z,27.20
2024-05-09T09:18:01.042Z,27.20
2024-05-09T09:20:35.491Z,27.30
2024-05-09T09:23:04.414Z,27.30
2024-05-09T09:25:32.116Z,27.30
2024-05-09T09:27:59.456Z,27.30
2024-05-09T09:30:35.072Z,27.40
2024-05-09T09:33:06.272Z,27.40
2024-05-09T09:35:34.483Z,27.40
2024-05-09T09:38:03.087Z,27.40
2024-05-09T09:40:35.878Z,27.50
2024-05-09T09:43:07.680Z,27.50
2024-05-09T09:45:36.070Z,27.50
2024-05-09T09:48:04.096Z,27.50
2024-05-09T09:50:34.711Z,27.60
2024-05-09T09:53:03.932Z,27.60
2024-05-09T09:55:32.626Z,27.70
2024-05-09T09:58:00.122Z,27.70
2024-05-09T10:00:33.012Z,27.70
2024-05-09T10:03:01.795Z,27.70
2024-05-09T10:05:30.353Z,27.70
2024-05-09T10:07:58.664Z,27.80
2024-05-09T10:10:32.262Z,27.90
2024-05-09T10:13:00.952Z,27.90
2024-05-09T10:15:28.377Z,27.90
2024-05-09T10:18:04.462Z,27.90
2024-05-09T10:20:41.994Z,27.90
2024-05-09T10:23:29.014Z,27.90
2024-05-09T10:25:57.309Z,27.80
2024-05-09T10:28:28.244Z,27.80
2024-05-09T10:31:08.972Z,27.80
2024-05-09T10:33:39.881Z,27.80
2024-05-09T10:36:20.791Z,27.80
2024-05-09T10:38:51.472Z,27.80
2024-05-09T10:41:19.020Z,27.80
2024-05-09T10:43:46.676Z,27.80
2024-05-09T10:46:14.966Z,27.80
2024-05-09T10:48:43.307Z,27.80
2024-05-09T10:51:10.783Z,27.90
2024-05-09T10:53:44.929Z,27.90
2024-05-09T10:56:13.597Z,27.90
2024-05-09T10:58:40.809Z,27.90
2024-05-09T11:01:09.314Z,28.00
2024-05-09T11:03:36.843Z,27.90
2024-05-09T11:06:04.421Z,28.00
2024-05-09T11:08:32.161Z,28.00
2024-05-09T11:11:04.895Z,28.00
2024-05-09T11:13:33.128Z,28.00
2024-05-09T11:16:00.710Z,28.00
2024-05-09T11:18:31.698Z,28.00
2024-05-09T11:21:02.063Z,28.00
2024-05-09T11:23:30.776Z,28.10
2024-05-09T11:25:58.564Z,28.10
2024-05-09T11:28:26.724Z,28.10
2024-05-09T11:31:10.797Z,28.10
2024-05-09T11:33:39.303Z,28.10
2024-05-09T11:36:07.320Z,28.10
2024-05-09T11:38:34.314Z,28.10
2024-05-09T11:41:01.948Z,28.10
2024-05-09T11:43:29.244Z,28.10
2024-05-09T11:46:00.466Z,28.10
2024-05-09T11:48:27.913Z,28.20
2024-05-09T11:50:55.791Z,28.20
2024-05-09T11:53:22.925Z,28.10
2024-05-09T11:55:50.000Z,28.00
2024-05-09T11:58:18.369Z,27.90
2024-05-09T12:00:46.746Z,27.80
2024-05-09T12:03:14.272Z,27.70
2024-05-09T12:05:41.544Z,27.50
2024-05-09T12:08:09.530Z,27.40
2024-05-09T12:10:37.144Z,27.20
2024-05-09T12:13:06.277Z,27.10
2024-05-09T12:15:37.430Z,27.00
2024-05-09T12:18:06.174Z,26.80
2024-05-09T12:20:37.667Z,26.70
2024-05-09T12:23:07.345Z,26.70
2024-05-09T12:25:35.217Z,26.60
2024-05-09T12:28:02.409Z,26.50
2024-05-09T12:30:36.360Z,26.40
2024-05-09T12:33:10.299Z,26.40
2024-05-09T12:35:38.075Z,26.40
2024-05-09T12:38:05.155Z,26.30
2024-05-09T12:40:36.948Z,26.30
2024-05-09T12:43:10.202Z,26.20
2024-05-09T12:45:38.627Z,26.20
2024-05-09T12:48:08.492Z,26.20
2024-05-09T12:50:36.214Z,26.20
2024-05-09T12:53:04.418Z,26.20
2024-05-09T12:55:40.162Z,26.20
2024-05-09T12:58:18.594Z,26.10
2024-05-09T13:00:46.418Z,26.10
2024-05-09T13:03:13.953Z,26.10
2024-05-09T13:05:41.691Z,26.10
2024-05-09T13:08:10.385Z,26.10
2024-05-09T13:10:37.453Z,26.00
2024-05-09T13:13:04.754Z,26.00
2024-05-09T13:15:34.596Z,25.90
2024-05-09T13:18:03.403Z,25.90
2024-05-09T13:20:34.426Z,25.80
2024-05-09T13:23:03.739Z,25.70
2024-05-09T13:25:31.157Z,25.70
2024-05-09T13:27:58.528Z,25.70
2024-05-09T13:30:33.670Z,25.60
2024-05-09T13:33:06.830Z,25.60
2024-05-09T13:35:35.657Z,25.60
2024-05-09T13:38:03.911Z,25.60
2024-05-09T13:40:34.714Z,25.60
2024-05-09T13:43:04.507Z,25.70
2024-05-09T13:45:32.111Z,25.80
2024-05-09T13:47:59.365Z,25.90
2024-05-09T13:50:33.637Z,25.90
2024-05-09T13:53:03.428Z,26.10
2024-05-09T13:55:30.490Z,26.10
2024-05-09T13:57:57.665Z,26.10
2024-05-09T14:02:54.696Z,26.30
2024-05-09T14:05:22.004Z,26.30
2024-05-09T14:07:49.461Z,26.30
2024-05-09T14:10:23.220Z,26.40
2024-05-09T14:12:55.732Z,26.40
2024-05-09T14:15:22.845Z,26.50
2024-05-09T14:17:51.037Z,26.50
2024-05-09T14:20:28.184Z,26.50
2024-05-09T14:23:00.376Z,26.60
2024-05-09T14:25:28.727Z,26.60
2024-05-09T14:27:57.585Z,26.60
2024-05-09T14:30:31.196Z,26.70
2024-05-09T14:33:04.508Z,26.70
2024-05-09T14:35:32.118Z,26.70
2024-05-09T14:37:59.920Z,26.80
2024-05-09T14:40:37.187Z,26.80
2024-05-09T14:43:10.003Z,26.80
2024-05-09T14:45:37.218Z,26.90
2024-05-09T14:48:04.721Z,26.90
2024-05-09T14:50:36.854Z,26.90
2024-05-09T14:53:07.533Z,26.90
2024-05-09T14:55:36.707Z,27.00
2024-05-09T14:58:06.595Z,27.00
2024-05-09T15:00:36.605Z,27.00
2024-05-09T15:03:05.533Z,27.00
2024-05-09T15:05:32.574Z,27.00
2024-05-09T15:07:59.805Z,27.00
2024-05-09T15:10:34.153Z,27.00
2024-05-09T15:13:03.738Z,27.00
2024-05-09T15:15:31.164Z,27.00
2024-05-09T15:17:58.357Z,27.00
2024-05-09T15:20:33.134Z,27.00
2024-05-09T15:23:03.147Z,27.00
2024-05-09T15:25:30.858Z,27.10
2024-05-09T15:27:58.093Z,27.10
2024-05-09T15:32:55.545Z,27.20
2024-05-09T15:35:22.525Z,27.20
2024-05-09T15:37:49.547Z,27.20
2024-05-09T15:40:26.133Z,27.20
2024-05-09T15:43:02.575Z,27.20
2024-05-09T15:45:29.802Z,27.20
2024-05-09T15:47:57.404Z,27.30
2024-05-09T15:50:36.319Z,27.30
2024-05-09T15:53:08.233Z,27.30
2024-05-09T15:55:36.216Z,27.30
2024-05-09T15:58:04.270Z,27.30
2024-05-09T16:00:37.782Z,27.30
2024-05-09T16:03:12.000Z,27.40
2024-05-09T16:05:41.172Z,27.40
2024-05-09T16:08:08.758Z,27.40
2024-05-09T16:10:37.048Z,27.40
2024-05-09T16:13:04.883Z,27.40
2024-05-09T16:15:32.456Z,27.50
2024-05-09T16:18:00.078Z,27.50
2024-05-09T16:20:35.121Z,27.60
2024-05-09T16:23:07.572Z,27.60
2024-05-09T16:25:34.880Z,27.60
2024-05-09T16:28:03.712Z,27.60
2024-05-09T16:30:35.390Z,27.70
2024-05-09T16:33:04.543Z,27.70
2024-05-09T16:35:32.503Z,27.70
2024-05-09T16:38:01.326Z,27.70
2024-05-09T16:40:36.402Z,27.70
2024-05-09T16:43:08.994Z,27.60
2024-05-09T16:45:37.022Z,27.60
2024-05-09T16:48:04.755Z,27.50
2024-05-09T16:50:34.512Z,27.50
2024-05-09T16:53:04.395Z,27.40
2024-05-09T16:55:32.117Z,27.40
2024-05-09T16:57:59.460Z,27.30
2024-05-09T17:00:36.373Z,27.30
2024-05-09T17:03:09.773Z,27.30
2024-05-09T17:05:37.633Z,27.20
2024-05-09T17:08:05.291Z,27.20
2024-05-09T17:10:34.472Z,27.30
2024-05-09T17:13:07.077Z,27.30
2024-05-09T17:15:36.057Z,27.40
2024-05-09T17:18:04.393Z,27.40
2024-05-09T17:20:35.164Z,27.50
2024-05-09T17:23:05.707Z,27.50
2024-05-09T17:25:33.909Z,27.50
2024-05-09T17:28:06.924Z,27.50
2024-05-09T17:30:37.211Z,27.50
2024-05-09T17:33:07.454Z,27.50
2024-05-09T17:35:35.849Z,27.50
2024-05-09T17:38:02.960Z,27.50
2024-05-09T17:40:34.919Z,27.40
2024-05-09T17:43:05.158Z,27.40
2024-05-09T17:45:33.011Z,27.30
2024-05-09T17:48:00.995Z,27.20
2024-05-09T17:50:35.092Z,27.20
2024-05-09T17:53:04.933Z,27.20
2024-05-09T17:55:32.298Z,27.10
2024-05-09T17:57:59.514Z,27.00
2024-05-09T18:02:56.794Z,27.00
2024-05-09T18:05:24.086Z,26.90
2024-05-09T18:07:51.172Z,26.90
2024-05-09T18:10:25.427Z,26.80
2024-05-09T18:12:57.358Z,26.80
2024-05-09T18:15:24.560Z,26.70
2024-05-09T18:17:52.633Z,26.70
2024-05-09T18:20:28.767Z,26.70
2024-05-09T18:23:05.154Z,26.60
2024-05-09T18:25:32.287Z,26.60
2024-05-09T18:27:59.411Z,26.60
2024-05-09T18:30:32.469Z,26.50
2024-05-09T18:33:02.504Z,26.50
2024-05-09T18:35:29.747Z,26.50
2024-05-09T18:37:56.864Z,26.50
2024-05-09T18:42:53.908Z,26.40
2024-05-09T18:45:21.061Z,26.40
2024-05-09T18:47:48.289Z,26.30
2024-05-09T18:50:24.578Z,26.30
2024-05-09T18:52:59.115Z,26.30
2024-05-09T18:55:26.072Z,26.30
2024-05-09T18:57:53.190Z,26.30
2024-05-09T19:00:31.091Z,26.20
2024-05-09T19:03:05.741Z,26.20
2024-05-09T19:05:35.269Z,26.20
2024-05-09T19:08:02.966Z,26.10
2024-05-09T19:10:34.318Z,26.10
2024-05-09T19:13:06.860Z,26.10
2024-05-09T19:15:38.587Z,26.10
2024-05-09T19:18:06.523Z,26.10
2024-05-09T19:20:35.603Z,26.10
2024-05-09T19:23:04.414Z,26.10
2024-05-09T19:25:32.619Z,26.10
2024-05-09T19:28:00.009Z,26.00
2024-05-09T19:30:36.570Z,26.00
2024-05-09T19:33:08.576Z,26.00
2024-05-09T19:35:37.961Z,26.00
2024-05-09T19:38:05.592Z,26.00
2024-05-09T19:40:34.669Z,26.00
2024-05-09T19:43:03.554Z,25.90
2024-05-09T19:45:32.657Z,25.90
2024-05-09T19:48:00.181Z,25.90
2024-05-09T19:50:36.646Z,25.90
2024-05-09T19:53:09.872Z,25.90
2024-05-09T19:55:37.276Z,25.90
2024-05-09T19:58:05.689Z,25.80
2024-05-09T20:00:36.536Z,25.80
2024-05-09T20:03:06.095Z,25.80
2024-05-09T20:05:33.697Z,25.70
2024-05-09T20:08:01.035Z,25.70
2024-05-09T20:10:32.514Z,25.70
2024-05-09T20:13:02.033Z,25.70
2024-05-09T20:15:29.289Z,25.70
2024-05-09T20:17:56.612Z,25.60
2024-05-09T20:20:32.868Z,25.60
2024-05-09T20:23:05.728Z,25.60
2024-05-09T20:25:32.708Z,25.60
2024-05-09T20:27:59.783Z,25.60
2024-05-09T20:30:32.050Z,25.60
2024-05-09T20:33:02.263Z,25.50
2024-05-09T20:35:31.865Z,25.60
2024-05-09T20:37:59.278Z,25.50
2024-05-09T20:40:32.428Z,25.50
2024-05-09T20:43:03.099Z,25.50
2024-05-09T20:45:30.193Z,25.40
2024-05-09T20:47:57.857Z,25.40
2024-05-09T20:50:35.569Z,25.40
2024-05-09T20:53:08.438Z,25.40
2024-05-09T20:55:35.478Z,25.40
2024-05-09T20:58:02.483Z,25.40
2024-05-09T21:00:35.578Z,25.30
2024-05-09T21:03:07.638Z,25.40
2024-05-09T21:05:35.558Z,25.30
2024-05-09T21:08:03.026Z,25.30
2024-05-09T21:10:33.163Z,25.30
2024-05-09T21:13:02.428Z,25.30
2024-05-09T21:15:30.154Z,25.20
2024-05-09T21:17:57.148Z,25.20
2024-05-09T21:20:30.634Z,25.20
2024-05-09T21:22:59.450Z,25.20
2024-05-09T21:25:26.432Z,25.20
2024-05-09T21:27:53.636Z,25.20
2024-05-09T21:32:51.485Z,25.20
2024-05-09T21:35:18.869Z,25.20
2024-05-09T21:37:45.882Z,25.20
2024-05-09T21:40:17.043Z,25.20
2024-05-09T21:42:51.097Z,25.20
2024-05-09T21:45:18.062Z,25.10
2024-05-09T21:47:45.239Z,25.20
2024-05-09T21:50:22.134Z,25.20
2024-05-09T21:52:50.593Z,25.10
2024-05-09T21:55:17.592Z,25.10
2024-05-09T21:57:44.614Z,25.10
2024-05-09T22:00:27.957Z,25.10
2024-05-09T22:03:01.993Z,25.10
2024-05-09T22:05:29.316Z,25.10
2024-05-09T22:07:57.216Z,25.00
2024-05-09T22:10:30.830Z,25.00
2024-05-09T22:13:01.842Z,25.00
2024-05-09T22:15:29.130Z,25.00
2024-05-09T22:17:57.461Z,25.00
2024-05-09T22:20:34.228Z,24.90
2024-05-09T22:23:05.053Z,25.00
2024-05-09T22:25:32.804Z,24.90
2024-05-09T22:28:01.060Z,24.90
2024-05-09T22:30:35.661Z,24.90
2024-05-09T22:33:07.215Z,24.90
2024-05-09T22:35:34.529Z,24.90
2024-05-09T22:38:02.766Z,24.90
2024-05-09T22:40:38.914Z,24.90
2024-05-09T22:43:14.088Z,24.90
2024-05-09T22:45:41.519Z,24.90
2024-05-09T22:48:09.370Z,24.90
2024-05-09T22:50:36.648Z,24.90
2024-05-09T22:53:03.699Z,24.90
2024-05-09T22:55:30.726Z,24.90
2024-05-09T22:57:57.796Z,24.90
2024-05-09T23:02:54.787Z,24.80
2024-05-09T23:05:22.121Z,24.80
2024-05-09T23:07:49.169Z,24.90
2024-05-09T23:10:21.462Z,24.90
2024-05-09T23:12:55.297Z,24.80
2024-05-09T23:15:22.388Z,24.80
2024-05-09T23:17:49.817Z,24.80
2024-05-09T23:20:25.860Z,24.80
2024-05-09T23:22:57.134Z,24.80
2024-05-09T23:25:24.147Z,24.70
2024-05-09T23:27:51.250Z,24.70
2024-05-09T23:30:28.247Z,24.70
2024-05-09T23:33:01.568Z,24.70
2024-05-09T23:35:28.790Z,24.70
2024-05-09T23:37:55.943Z,24.70
2024-05-09T23:40:23.859Z,24.70
2024-05-09T23:42:53.781Z,24.70
2024-05-09T23:45:20.859Z,24.70
2024-05-09T23:47:48.062Z,24.70
2024-05-09T23:50:20.537Z,24.70
2024-05-09T23:52:51.135Z,24.70
2024-05-09T23:55:18.438Z,24.70
2024-05-09T23:57:45.655Z,24.70
